Preview of NWS' New Version of Forecast
This preview is not operational and should not be used for support decisions.

Terminal Aerodrome Forecast (TAF)

Issued by National Weather Service (NWS)

                            
904 
FTUS42 KKEY 261727
TAFEYW
TAF
KEYW 261727Z 2618/2718 33009KT P6SM FEW020
     FM270600 33012G18KT P6SM SCT015=